Time;durP1;ratioP1;P1;durP2;ratioP2;P2;SDS_P1;SDS_P2;PMS_P1;PMS_P2;Temp;Humidity;BMP_temperature;BMP_pressure;BME280_temperature;BME280_humidity;BME280_pressure;Samples;Min_cycle;Max_cycle;Signal;HPM_P1;HPM_P2
2021/08/27 00:00:14;;;;;;;7.60;4.50;;;;;;;10.25;80.28;96873.93;116303;1181;59543;-71
2021/08/27 00:03:00;;;;;;;10.60;4.80;;;;;;;10.24;82.72;96873.27;116040;1186;70547;-71
2021/08/27 00:05:30;;;;;;;12.50;5.00;;;;;;;10.23;83.64;96873.23;116305;1183;69117;-70
2021/08/27 00:08:00;;;;;;;8.00;5.20;;;;;;;10.20;82.16;96869.83;116300;1183;68256;-71
2021/08/27 00:10:29;;;;;;;8.10;4.60;;;;;;;10.19;81.33;96872.21;116137;1184;59610;-72
2021/08/27 00:12:59;;;;;;;8.80;5.30;;;;;;;10.20;81.10;96873.23;116257;1184;59609;-72
2021/08/27 00:15:29;;;;;;;7.30;5.10;;;;;;;10.17;81.15;96872.45;116338;1180;70796;-71
2021/08/27 00:17:59;;;;;;;10.90;5.40;;;;;;;10.14;81.28;96873.52;116315;1184;69137;-71
2021/08/27 00:20:29;;;;;;;12.70;8.30;;;;;;;10.15;81.87;96866.69;116284;1184;67566;-71
2021/08/27 00:22:58;;;;;;;9.40;5.60;;;;;;;10.17;82.26;96867.65;116227;1182;59629;-70
2021/08/27 00:25:27;;;;;;;9.50;5.70;;;;;;;10.18;81.95;96866.12;116289;1183;59536;-71
2021/08/27 00:27:57;;;;;;;11.20;6.80;;;;;;;10.16;81.97;96860.55;116277;1179;71147;-71
2021/08/27 00:30:27;;;;;;;20.10;15.10;;;;;;;10.17;83.83;96860.83;116271;1185;69193;-71
2021/08/27 00:32:56;;;;;;;47.40;34.50;;;;;;;10.19;83.27;96861.48;116227;1184;69178;-71
2021/08/27 00:35:26;;;;;;;33.10;26.80;;;;;;;10.20;82.04;96862.08;116376;1183;59562;-71
2021/08/27 00:37:56;;;;;;;28.70;21.10;;;;;;;10.20;82.00;96861.61;116321;1183;59548;-72
2021/08/27 00:40:26;;;;;;;28.70;22.90;;;;;;;10.21;83.93;96861.81;116303;1179;70420;-71
2021/08/27 00:42:55;;;;;;;32.50;26.90;;;;;;;10.21;82.67;96862.20;116209;1184;67527;-71
2021/08/27 00:45:25;;;;;;;33.90;23.80;;;;;;;10.22;82.20;96856.39;116295;1183;68605;-71
2021/08/27 00:47:55;;;;;;;24.50;20.20;;;;;;;10.24;82.42;96857.92;116328;1184;60026;-70
2021/08/27 00:50:25;;;;;;;19.80;15.60;;;;;;;10.25;82.95;96862.71;116039;1184;59530;-72
2021/08/27 00:52:54;;;;;;;22.50;15.70;;;;;;;10.25;83.08;96864.55;116304;1184;70375;-71
2021/08/27 00:55:24;;;;;;;17.10;13.50;;;;;;;10.22;82.84;96859.16;116299;1179;69168;-71
2021/08/27 00:57:54;;;;;;;20.70;16.10;;;;;;;10.22;84.41;96861.86;116319;1183;69132;-72
2021/08/27 01:00:24;;;;;;;23.10;17.60;;;;;;;10.21;83.73;96861.48;116298;1183;59554;-71
2021/08/27 01:02:54;;;;;;;22.40;17.20;;;;;;;10.18;83.50;96862.30;116267;1183;59562;-71
2021/08/27 01:05:24;;;;;;;23.50;17.10;;;;;;;10.15;83.04;96863.52;116317;1183;70374;-70
2021/08/27 01:08:08;;;;;;;21.70;15.60;;;;;;;10.12;82.85;96860.89;116277;1180;69199;-72
2021/08/27 01:10:46;;;;;;;18.00;13.80;;;;;;;10.09;82.70;96857.74;116176;1181;68296;-71
2021/08/27 01:13:39;;;;;;;18.10;13.90;;;;;;;10.09;82.66;96861.71;116302;1183;59542;-71
2021/08/27 01:16:18;;;;;;;16.40;11.10;;;;;;;10.09;82.87;96853.63;116233;1183;59478;-71
2021/08/27 01:19:01;;;;;;;20.70;14.90;;;;;;;10.12;84.68;96858.56;116320;1184;71271;-71
2021/08/27 01:21:55;;;;;;;21.90;15.10;;;;;;;10.14;83.85;96859.77;116348;1183;67984;-71
2021/08/27 01:24:29;;;;;;;13.20;9.60;;;;;;;10.16;82.90;96861.68;116283;1185;68429;-71
2021/08/27 01:27:04;;;;;;;14.00;8.80;;;;;;;10.16;82.93;96862.80;116281;1180;59515;-71
2021/08/27 01:30:02;;;;;;;12.90;8.50;;;;;;;10.15;82.80;96862.58;116203;1184;59523;-71
2021/08/27 01:32:45;;;;;;;14.00;10.20;;;;;;;10.17;83.39;96863.14;116217;1185;70561;-70
2021/08/27 01:35:16;;;;;;;16.50;11.00;;;;;;;10.18;83.21;96861.33;116249;1184;68207;-71
2021/08/27 01:37:50;;;;;;;11.60;8.80;;;;;;;10.21;83.18;96861.39;116288;1185;70551;-72
2021/08/27 01:40:22;;;;;;;13.30;7.60;;;;;;;10.26;84.35;96860.06;116243;1185;59542;-71
2021/08/27 01:42:54;;;;;;;14.30;9.10;;;;;;;10.28;84.70;96867.73;116157;1184;59565;-71
2021/08/27 01:45:25;;;;;;;18.00;9.10;;;;;;;10.26;84.06;96863.30;116338;1185;71221;-71
2021/08/27 01:47:55;;;;;;;11.20;8.00;;;;;;;10.26;83.95;96858.66;116283;1185;68297;-71
2021/08/27 01:50:26;;;;;;;14.90;8.40;;;;;;;10.29;83.82;96856.48;116083;1185;69318;-71
2021/08/27 01:52:57;;;;;;;12.00;7.20;;;;;;;10.34;84.25;96848.91;116324;1184;59503;-71
2021/08/27 01:55:28;;;;;;;9.10;5.40;;;;;;;10.39;84.38;96848.57;116335;1183;59608;-71
2021/08/27 01:58:01;;;;;;;10.50;6.40;;;;;;;10.44;85.24;96848.89;116344;1179;71391;-72
2021/08/27 02:00:31;;;;;;;19.30;11.00;;;;;;;10.47;84.35;96854.61;116297;1180;69006;-71
2021/08/27 02:03:04;;;;;;;21.00;11.70;;;;;;;10.47;83.99;96857.21;116298;1184;68463;-72
2021/08/27 02:05:36;;;;;;;17.20;10.70;;;;;;;10.45;83.76;96846.15;116329;1182;59633;-71
2021/08/27 02:08:07;;;;;;;13.90;10.80;;;;;;;10.43;84.42;96852.16;116321;1184;59540;-70
2021/08/27 02:10:37;;;;;;;12.70;8.80;;;;;;;10.41;85.11;96854.99;116231;1184;71238;-71
2021/08/27 02:13:08;;;;;;;9.40;6.30;;;;;;;10.43;85.15;96858.36;116287;1183;68147;-71
2021/08/27 02:15:39;;;;;;;11.50;6.20;;;;;;;10.44;84.85;96863.34;116283;1184;69266;-71
2021/08/27 02:18:08;;;;;;;12.30;6.20;;;;;;;10.48;84.28;96859.48;116341;1182;59551;-71
2021/08/27 02:20:38;;;;;;;10.40;6.10;;;;;;;10.52;84.25;96855.13;116346;1179;59546;-71
2021/08/27 02:23:09;;;;;;;13.80;7.40;;;;;;;10.54;84.11;96858.67;116276;1183;71299;-72
2021/08/27 02:25:44;;;;;;;11.60;6.80;;;;;;;10.52;83.84;96853.87;116354;1184;69199;-71
2021/08/27 02:28:18;;;;;;;9.50;6.80;;;;;;;10.47;83.67;96850.44;116283;1179;69131;-70
2021/08/27 02:30:48;;;;;;;9.10;6.00;;;;;;;10.46;83.51;96850.30;116292;1184;59473;-71
2021/08/27 02:33:19;;;;;;;12.20;6.00;;;;;;;10.47;83.63;96853.75;116311;1183;59536;-71
2021/08/27 02:35:50;;;;;;;8.60;5.40;;;;;;;10.46;84.00;96858.12;116321;1183;71457;-72
2021/08/27 02:38:23;;;;;;;11.00;5.70;;;;;;;10.45;84.63;96854.95;116325;1179;68363;-71
2021/08/27 02:40:52;;;;;;;10.50;6.70;;;;;;;10.45;84.29;96860.39;116312;1184;68897;-71
2021/08/27 02:43:22;;;;;;;8.80;6.30;;;;;;;10.45;83.53;96857.63;116284;1179;59502;-71
2021/08/27 02:45:52;;;;;;;9.80;6.10;;;;;;;10.46;83.81;96851.16;116215;1179;59623;-71
2021/08/27 02:48:21;;;;;;;10.00;7.30;;;;;;;10.49;84.19;96856.04;116168;1185;71330;-71
2021/08/27 02:51:03;;;;;;;14.30;8.10;;;;;;;10.47;84.34;96856.04;116258;1180;69279;-71
2021/08/27 02:53:37;;;;;;;18.10;7.90;;;;;;;10.43;85.15;96857.37;116140;1185;69210;-71
2021/08/27 02:56:16;;;;;;;12.10;8.50;;;;;;;10.39;85.19;96858.23;116295;1183;59486;-71
2021/08/27 02:58:47;;;;;;;13.00;8.40;;;;;;;10.32;84.68;96856.21;116283;1185;59527;-72
2021/08/27 03:01:37;;;;;;;11.50;8.00;;;;;;;10.28;84.51;96855.47;116353;1185;71330;-71
2021/08/27 03:04:24;;;;;;;;;;;;;;;10.22;85.07;96857.44;116335;1180;68362;-71
2021/08/27 03:07:07;;;;;;;12.60;7.10;;;;;;;10.13;85.74;96856.57;115979;1185;68514;-71
2021/08/27 03:09:53;;;;;;;12.00;7.30;;;;;;;10.07;85.40;96855.61;116230;1179;59501;-71
2021/08/27 03:12:33;;;;;;;10.90;6.60;;;;;;;10.00;85.20;96851.71;116325;1184;59504;-72
2021/08/27 03:15:05;;;;;;;13.00;6.50;;;;;;;9.99;85.78;96856.19;116300;1185;71357;-71
2021/08/27 03:17:40;;;;;;;10.40;6.50;;;;;;;10.00;85.78;96857.73;116234;1185;68836;-71
2021/08/27 03:20:17;;;;;;;11.30;6.20;;;;;;;10.00;85.22;96857.64;116153;1184;67506;-72
2021/08/27 03:23:01;;;;;;;10.70;5.60;;;;;;;10.02;85.05;96861.55;116306;1183;59533;-71
2021/08/27 03:25:35;;;;;;;9.90;6.30;;;;;;;10.04;85.68;96865.40;116336;1179;59568;-71
2021/08/27 03:28:09;;;;;;;12.20;6.60;;;;;;;10.08;85.67;96865.61;116203;1179;71573;-70
2021/08/27 03:30:40;;;;;;;13.00;6.90;;;;;;;10.12;85.82;96864.91;116275;1183;68707;-70
2021/08/27 03:33:11;;;;;;;11.60;6.10;;;;;;;10.16;85.23;96865.52;116286;1185;67639;-71
2021/08/27 03:35:42;;;;;;;11.70;6.00;;;;;;;10.22;85.25;96863.67;116283;1184;59558;-71
2021/08/27 03:38:13;;;;;;;11.30;6.40;;;;;;;10.27;85.34;96861.23;116326;1179;59538;-71
2021/08/27 03:40:45;;;;;;;11.90;6.40;;;;;;;10.32;84.97;96858.04;116310;1183;69690;-70
2021/08/27 03:43:15;;;;;;;9.10;5.60;;;;;;;10.36;84.86;96862.61;116327;1182;68491;-70
2021/08/27 03:45:46;;;;;;;8.50;5.70;;;;;;;10.41;84.52;96861.08;116284;1183;69213;-71
2021/08/27 03:48:18;;;;;;;8.70;5.70;;;;;;;10.44;85.02;96861.45;116178;1185;59637;-72
2021/08/27 03:50:49;;;;;;;12.20;5.50;;;;;;;10.45;84.77;96865.90;116342;1183;59543;-71
2021/08/27 03:53:20;;;;;;;7.10;4.70;;;;;;;10.48;84.64;96873.94;116179;1185;71396;-70
2021/08/27 03:55:52;;;;;;;9.60;5.70;;;;;;;10.49;84.88;96877.45;116330;1179;68325;-71
2021/08/27 03:58:24;;;;;;;8.20;5.40;;;;;;;10.53;84.53;96877.85;116322;1182;70163;-71
2021/08/27 04:00:56;;;;;;;9.30;5.20;;;;;;;10.61;84.57;96876.65;116242;1183;59545;-71
2021/08/27 04:03:26;;;;;;;10.80;6.20;;;;;;;10.68;84.52;96871.70;116286;1179;59533;-71
2021/08/27 04:05:57;;;;;;;12.30;6.30;;;;;;;10.77;84.60;96868.50;116255;1185;70510;-71
2021/08/27 04:08:28;;;;;;;9.40;5.60;;;;;;;10.88;83.90;96866.48;116251;1180;69119;-71
2021/08/27 04:10:57;;;;;;;12.70;6.00;;;;;;;11.00;83.57;96866.08;116207;1185;68456;-71
2021/08/27 04:13:27;;;;;;;9.80;6.00;;;;;;;11.14;83.21;96867.63;116299;1183;59566;-71
2021/08/27 04:15:56;;;;;;;12.00;5.60;;;;;;;11.32;82.97;96868.90;116297;1185;59560;-72
2021/08/27 04:18:25;;;;;;;10.70;5.60;;;;;;;11.48;82.54;96868.80;116223;1185;71167;-70
2021/08/27 04:20:55;;;;;;;10.50;5.70;;;;;;;11.58;82.28;96866.32;116201;1182;69133;-72
2021/08/27 04:23:24;;;;;;;14.70;5.60;;;;;;;11.65;81.98;96869.10;116130;1184;69188;-72
2021/08/27 04:25:53;;;;;;;12.80;7.10;;;;;;;11.70;81.53;96868.56;116262;1183;59539;-72
2021/08/27 04:28:23;;;;;;;15.20;8.70;;;;;;;11.80;80.97;96866.41;116350;1180;59469;-71
2021/08/27 04:30:52;;;;;;;15.00;7.90;;;;;;;11.97;80.73;96863.77;116278;1179;70546;-71
2021/08/27 04:33:21;;;;;;;11.80;6.30;;;;;;;12.15;80.62;96860.95;116325;1183;69170;-71
2021/08/27 04:35:51;;;;;;;20.50;6.30;;;;;;;12.14;80.12;96862.19;116313;1179;69485;-71
2021/08/27 04:38:20;;;;;;;10.90;6.10;;;;;;;12.10;79.99;96861.18;116363;1180;59501;-71
2021/08/27 04:40:49;;;;;;;8.70;5.60;;;;;;;12.09;79.93;96852.73;116330;1182;59527;-72
2021/08/27 04:43:19;;;;;;;15.00;6.90;;;;;;;12.09;79.85;96851.63;116306;1180;70618;-70
2021/08/27 04:45:48;;;;;;;12.50;5.40;;;;;;;12.06;79.79;96859.18;116327;1183;69429;-71
2021/08/27 04:48:17;;;;;;;12.00;5.80;;;;;;;12.02;79.91;96871.20;116329;1183;68316;-71
2021/08/27 04:50:47;;;;;;;11.80;6.30;;;;;;;11.99;80.42;96872.42;116060;1181;59550;-71
2021/08/27 04:53:17;;;;;;;11.20;5.80;;;;;;;11.99;80.20;96872.64;116328;1183;59508;-72
2021/08/27 04:55:46;;;;;;;10.90;4.90;;;;;;;12.01;80.00;96874.70;116293;1183;70937;-70
2021/08/27 04:58:15;;;;;;;10.90;5.30;;;;;;;12.04;79.67;96871.64;116237;1182;69297;-71
2021/08/27 05:00:44;;;;;;;11.40;5.60;;;;;;;12.07;78.63;96868.29;116189;1179;68436;-72
2021/08/27 05:03:14;;;;;;;10.20;5.20;;;;;;;12.14;78.57;96868.91;116326;1185;59493;-72
2021/08/27 05:05:44;;;;;;;11.10;5.50;;;;;;;12.30;78.12;96873.52;116302;1179;59529;-72
2021/08/27 05:08:13;;;;;;;11.90;5.40;;;;;;;12.57;77.66;96876.67;116326;1183;70576;-72
2021/08/27 05:10:42;;;;;;;9.80;5.00;;;;;;;12.96;77.41;96877.69;116352;1183;68408;-71
2021/08/27 05:13:11;;;;;;;11.60;5.40;;;;;;;13.46;76.70;96878.05;116300;1183;69212;-72
2021/08/27 05:15:41;;;;;;;11.70;5.10;;;;;;;13.96;74.88;96875.77;116290;1183;59642;-73
2021/08/27 05:18:10;;;;;;;14.90;5.40;;;;;;;14.32;74.59;96876.15;116285;1185;59573;-71
2021/08/27 05:20:39;;;;;;;14.90;4.70;;;;;;;14.56;72.11;96872.20;116300;1183;71357;-69
2021/08/27 05:23:09;;;;;;;9.70;5.00;;;;;;;14.66;69.73;96867.85;116284;1183;69056;-73
2021/08/27 05:25:38;;;;;;;11.70;4.80;;;;;;;14.75;70.22;96870.04;116254;1179;68244;-70
2021/08/27 05:28:07;;;;;;;10.00;5.50;;;;;;;15.03;70.57;96873.27;116315;1183;59514;-70
2021/08/27 05:30:36;;;;;;;12.80;5.40;;;;;;;15.40;70.13;96867.48;116259;1183;59543;-72
2021/08/27 05:33:05;;;;;;;12.40;5.50;;;;;;;15.81;67.24;96868.80;116295;1180;71335;-76
2021/08/27 05:35:34;;;;;;;10.00;4.90;;;;;;;16.12;66.98;96870.32;116067;1182;68434;-71
2021/08/27 05:38:03;;;;;;;9.10;4.70;;;;;;;16.29;64.52;96870.23;116290;1180;69035;-72
2021/08/27 05:40:32;;;;;;;9.70;5.20;;;;;;;16.35;65.02;96872.55;116278;1183;59600;-72
2021/08/27 05:43:01;;;;;;;8.10;4.40;;;;;;;16.22;63.96;96869.31;116269;1184;59553;-72
2021/08/27 05:45:31;;;;;;;11.50;5.20;;;;;;;16.12;64.19;96882.36;116124;1183;70408;-73
2021/08/27 05:48:00;;;;;;;12.90;4.60;;;;;;;16.25;64.87;96893.07;116253;1183;69198;-71
2021/08/27 05:50:29;;;;;;;10.30;4.10;;;;;;;16.26;63.11;96894.50;116257;1183;69041;-72
2021/08/27 05:52:58;;;;;;;9.90;4.20;;;;;;;16.30;64.02;96893.78;116263;1182;59542;-69
2021/08/27 05:55:27;;;;;;;10.20;4.50;;;;;;;16.34;63.82;96893.98;116095;1179;59564;-70
2021/08/27 05:57:56;;;;;;;8.20;4.60;;;;;;;16.18;63.94;96897.00;116282;1179;70568;-71
2021/08/27 06:00:25;;;;;;;10.50;4.30;;;;;;;16.20;64.31;96899.67;116280;1185;69170;-71
2021/08/27 06:02:55;;;;;;;10.90;4.20;;;;;;;16.22;64.81;96899.73;116289;1183;69167;-71
2021/08/27 06:05:24;;;;;;;15.30;4.40;;;;;;;16.32;65.33;96905.34;116129;1184;59536;-72
2021/08/27 06:07:53;;;;;;;12.40;4.40;;;;;;;16.38;64.63;96910.73;116273;1179;59530;-72
2021/08/27 06:10:22;;;;;;;7.00;3.60;;;;;;;16.35;64.12;96906.84;116286;1183;71326;-72
2021/08/27 06:12:51;;;;;;;8.30;4.20;;;;;;;16.37;64.28;96907.17;116326;1183;69029;-72
2021/08/27 06:15:20;;;;;;;8.40;4.00;;;;;;;16.39;63.74;96913.70;116296;1183;68563;-72
2021/08/27 06:17:49;;;;;;;9.60;4.40;;;;;;;16.51;63.61;96914.89;116298;1178;59536;-72
2021/08/27 06:20:18;;;;;;;8.50;4.00;;;;;;;16.52;62.64;96929.02;116314;1180;59537;-72
2021/08/27 06:22:48;;;;;;;8.00;4.60;;;;;;;16.48;63.00;96928.71;116281;1180;70559;-72
2021/08/27 06:25:18;;;;;;;9.30;5.50;;;;;;;16.48;63.23;96920.85;116321;1178;68532;-72
2021/08/27 06:27:47;;;;;;;10.40;4.80;;;;;;;16.58;63.40;96923.14;116186;1184;68500;-71
2021/08/27 06:30:16;;;;;;;9.20;4.60;;;;;;;16.67;62.68;96919.98;116280;1183;59581;-72
2021/08/27 06:32:45;;;;;;;7.80;4.60;;;;;;;17.13;62.51;96910.79;116279;1183;59610;-72
2021/08/27 06:35:14;;;;;;;9.90;4.00;;;;;;;17.75;59.97;96899.20;116186;1180;71289;-72
2021/08/27 06:40:31;;;;;;;11.20;4.10;;;;;;;18.88;57.17;96876.58;116202;1184;68473;-72
2021/08/27 06:43:00;;;;;;;9.90;4.60;;;;;;;19.33;55.10;96878.69;116085;1183;59530;-72
2021/08/27 06:45:29;;;;;;;7.00;4.10;;;;;;;19.76;54.12;96890.67;116242;1183;59489;-71
2021/08/27 06:47:58;;;;;;;9.10;4.60;;;;;;;20.04;51.95;96896.15;116180;1184;70545;-72
2021/08/27 06:50:27;;;;;;;5.80;3.50;;;;;;;20.45;51.77;96902.05;116286;1179;69385;-71
2021/08/27 06:52:57;;;;;;;8.00;3.60;;;;;;;20.93;51.89;96898.64;116256;1183;69840;-71
2021/08/27 06:55:26;;;;;;;5.50;3.50;;;;;;;21.31;50.44;96888.56;116266;1184;59545;-72
2021/08/27 06:57:55;;;;;;;6.90;4.00;;;;;;;21.66;49.24;96884.14;116287;1183;59522;-72
2021/08/27 07:00:24;;;;;;;7.00;3.70;;;;;;;21.98;48.10;96884.82;116228;1180;71358;-73
2021/08/27 07:02:53;;;;;;;6.20;3.00;;;;;;;22.29;48.15;96874.77;116271;1184;68974;-72
2021/08/27 07:05:27;;;;;;;7.10;3.30;;;;;;;22.37;46.81;96867.06;116246;1183;68497;-73
2021/08/27 07:07:56;;;;;;;6.20;3.60;;;;;;;22.92;46.33;96865.20;116253;1184;59519;-72
2021/08/27 07:10:26;;;;;;;7.80;3.40;;;;;;;23.14;44.68;96868.95;116284;1185;59507;-73
2021/08/27 07:12:56;;;;;;;9.00;3.10;;;;;;;22.98;44.33;96865.00;116205;1184;70591;-73
2021/08/27 07:15:26;;;;;;;5.80;3.60;;;;;;;23.23;44.59;96856.05;116269;1184;68790;-73
2021/08/27 07:17:56;;;;;;;9.40;3.70;;;;;;;23.34;44.95;96845.61;116239;1179;69293;-73
2021/08/27 07:20:26;;;;;;;5.70;3.30;;;;;;;23.53;44.02;96832.32;116308;1180;59538;-74
2021/08/27 07:22:57;;;;;;;6.60;3.40;;;;;;;23.11;45.16;96838.03;116232;1182;59572;-74
2021/08/27 07:25:27;;;;;;;5.50;3.40;;;;;;;22.54;46.71;96841.63;116318;1182;70802;-74
2021/08/27 07:27:56;;;;;;;;;;;;;;;22.42;47.56;96843.60;116302;1179;68382;-73
2021/08/27 07:30:25;;;;;;;7.20;3.40;;;;;;;22.37;47.65;96842.59;116061;1185;69313;-72
2021/08/27 07:32:54;;;;;;;7.80;4.00;;;;;;;22.61;47.81;96835.73;116255;1185;59526;-72
2021/08/27 07:35:23;;;;;;;6.70;3.80;;;;;;;22.79;46.91;96829.50;116194;1184;59530;-72
2021/08/27 07:37:52;;;;;;;5.70;3.60;;;;;;;22.95;45.79;96825.70;116248;1183;71323;-71
2021/08/27 07:40:21;;;;;;;6.10;3.50;;;;;;;22.96;45.56;96827.78;116113;1184;68556;-73
2021/08/27 07:42:50;;;;;;;7.50;3.40;;;;;;;23.24;45.43;96820.72;116080;1185;69261;-74
2021/08/27 07:45:20;;;;;;;12.50;3.70;;;;;;;23.38;44.85;96814.73;116252;1183;59504;-73
2021/08/27 07:47:49;;;;;;;9.00;3.10;;;;;;;23.31;45.48;96819.66;116255;1182;59500;-73
2021/08/27 07:50:19;;;;;;;8.30;3.60;;;;;;;22.97;45.41;96827.71;116105;1184;71405;-73
2021/08/27 07:52:48;;;;;;;7.70;3.30;;;;;;;23.45;45.20;96832.14;116300;1183;68272;-73
2021/08/27 07:55:17;;;;;;;5.40;3.00;;;;;;;24.21;43.21;96836.27;116246;1183;68591;-74
2021/08/27 07:57:46;;;;;;;5.70;2.70;;;;;;;24.75;40.60;96841.24;116254;1179;59504;-74
2021/08/27 08:00:15;;;;;;;6.30;2.60;;;;;;;24.66;40.76;96837.80;116221;1179;59556;-73
2021/08/27 08:02:44;;;;;;;4.70;3.20;;;;;;;24.49;40.17;96839.27;116227;1183;71242;-74
2021/08/27 08:05:13;;;;;;;5.50;2.80;;;;;;;24.14;39.96;96830.39;116292;1183;68265;-70
2021/08/27 08:07:42;;;;;;;5.00;3.00;;;;;;;23.99;40.14;96826.87;116227;1183;68479;-70
2021/08/27 08:10:11;;;;;;;8.20;3.10;;;;;;;23.89;40.53;96822.02;116198;1185;59460;-70
2021/08/27 08:12:40;;;;;;;5.60;3.30;;;;;;;23.66;40.84;96823.30;116204;1179;59505;-70
2021/08/27 08:15:09;;;;;;;4.50;2.80;;;;;;;23.86;41.08;96839.77;116261;1183;69376;-70
2021/08/27 08:17:38;;;;;;;5.90;3.30;;;;;;;23.88;41.29;96855.03;116228;1185;68217;-71
2021/08/27 08:20:08;;;;;;;8.20;4.00;;;;;;;23.80;41.52;96857.98;116243;1185;68528;-70
2021/08/27 08:22:37;;;;;;;5.30;3.50;;;;;;;23.77;41.82;96853.19;116225;1183;59559;-71
2021/08/27 08:25:07;;;;;;;6.20;3.40;;;;;;;23.44;42.47;96850.52;116306;1182;59517;-70
2021/08/27 08:27:36;;;;;;;13.30;4.10;;;;;;;23.00;44.16;96858.36;116233;1185;71318;-70
2021/08/27 08:30:06;;;;;;;6.00;3.60;;;;;;;22.89;44.84;96862.89;116246;1184;69209;-71
2021/08/27 08:32:35;;;;;;;7.10;3.30;;;;;;;22.85;45.34;96868.42;116279;1179;69243;-72
2021/08/27 08:35:04;;;;;;;7.00;3.50;;;;;;;22.71;44.49;96867.77;116232;1183;59508;-72
2021/08/27 08:37:33;;;;;;;9.30;3.10;;;;;;;22.62;45.37;96858.04;116135;1182;59546;-70
2021/08/27 08:40:02;;;;;;;16.80;3.50;;;;;;;22.64;45.67;96854.02;116254;1179;70458;-71
2021/08/27 08:42:31;;;;;;;7.20;3.60;;;;;;;22.77;45.30;96853.05;116255;1184;68221;-71
2021/08/27 08:45:02;;;;;;;9.00;3.50;;;;;;;22.97;45.46;96842.48;116147;1185;69217;-71
2021/08/27 08:47:36;;;;;;;6.20;3.20;;;;;;;23.37;45.26;96833.08;116276;1178;59554;-71
2021/08/27 08:50:06;;;;;;;4.70;3.30;;;;;;;23.67;44.12;96830.42;116206;1185;59503;-71
2021/08/27 08:52:36;;;;;;;7.30;3.30;;;;;;;23.90;43.49;96829.38;116129;1181;70449;-71
2021/08/27 08:55:05;;;;;;;;;;;;;;;23.80;45.07;96827.50;116289;1183;69066;-71
2021/08/27 08:57:34;;;;;;;6.20;3.10;;;;;;;24.23;43.07;96830.45;116222;1185;67581;-70
2021/08/27 09:00:05;;;;;;;9.00;3.40;;;;;;;24.41;42.29;96831.63;116216;1184;59519;-72
2021/08/27 09:02:34;;;;;;;5.70;3.50;;;;;;;24.90;41.80;96828.54;116261;1184;59485;-72
2021/08/27 09:05:04;;;;;;;5.80;2.70;;;;;;;25.19;40.81;96828.80;116236;1185;71195;-73
2021/08/27 09:07:34;;;;;;;6.80;3.40;;;;;;;24.93;40.50;96827.12;116259;1184;70382;-72
2021/08/27 09:10:05;;;;;;;5.80;3.40;;;;;;;25.41;40.57;96824.73;116217;1185;69327;-72
2021/08/27 09:12:34;;;;;;;7.80;3.40;;;;;;;25.74;39.47;96812.85;116221;1179;59568;-75
2021/08/27 09:15:07;;;;;;;5.30;3.40;;;;;;;26.03;37.68;96800.27;116233;1185;59957;-74
2021/08/27 09:17:41;;;;;;;8.60;3.80;;;;;;;25.97;38.14;96789.86;116233;1179;71436;-74
2021/08/27 09:20:17;;;;;;;7.60;3.60;;;;;;;25.77;37.84;96791.86;116180;1184;69235;-75
2021/08/27 09:22:47;;;;;;;8.00;3.40;;;;;;;25.53;38.42;96792.14;116230;1183;69281;-71
2021/08/27 09:25:26;;;;;;;8.30;3.60;;;;;;;25.07;39.04;96790.14;116235;1184;59552;-71
2021/08/27 09:28:12;;;;;;;5.30;3.30;;;;;;;24.69;40.60;96791.73;116235;1183;59492;-71
2021/08/27 09:30:47;;;;;;;7.30;3.80;;;;;;;24.67;40.82;96793.38;116220;1185;70673;-71
2021/08/27 09:33:22;;;;;;;6.80;3.70;;;;;;;24.65;40.46;96792.38;116256;1184;68998;-71
2021/08/27 09:36:03;;;;;;;7.50;3.70;;;;;;;24.56;40.25;96788.06;116256;1183;68564;-71
2021/08/27 09:38:35;;;;;;;7.30;3.60;;;;;;;24.48;40.80;96790.17;116222;1182;59544;-72
2021/08/27 09:41:05;;;;;;;7.30;3.90;;;;;;;24.71;40.96;96797.13;116284;1184;59561;-71
2021/08/27 09:43:50;;;;;;;6.40;3.80;;;;;;;25.06;40.56;96792.89;116229;1184;71902;-73
2021/08/27 09:46:43;;;;;;;11.60;4.20;;;;;;;25.25;40.88;96788.70;116083;1184;69428;-73
2021/08/27 09:49:26;;;;;;;12.50;4.10;;;;;;;25.25;40.30;96791.30;116227;1183;69010;-74
2021/08/27 09:51:57;;;;;;;7.40;3.40;;;;;;;25.12;40.80;96798.04;116245;1183;59549;-71
2021/08/27 09:54:38;;;;;;;6.70;4.10;;;;;;;25.07;41.23;96799.77;116179;1185;59532;-71
2021/08/27 09:57:14;;;;;;;5.50;3.40;;;;;;;24.82;40.47;96795.56;116264;1183;71157;-71
2021/08/27 09:59:50;;;;;;;7.60;3.80;;;;;;;24.47;41.22;96789.97;116212;1184;69243;-71
2021/08/27 10:02:39;;;;;;;7.20;4.00;;;;;;;24.43;41.34;96781.96;116271;1180;68531;-71
2021/08/27 10:05:10;;;;;;;6.20;3.70;;;;;;;24.26;41.75;96778.55;116198;1184;59581;-73
2021/08/27 10:07:40;;;;;;;8.50;3.90;;;;;;;24.07;41.93;96777.39;116079;1182;59528;-71
2021/08/27 10:10:15;;;;;;;10.90;4.10;;;;;;;23.87;41.45;96767.23;116051;1185;71357;-72
2021/08/27 10:12:44;;;;;;;6.30;4.30;;;;;;;23.56;42.41;96761.00;116096;1184;68998;-72
2021/08/27 10:15:14;;;;;;;7.50;3.80;;;;;;;23.36;43.09;96761.39;116251;1184;68500;-72
2021/08/27 10:17:43;;;;;;;9.10;4.90;;;;;;;23.17;44.43;96763.34;116231;1183;59505;-72
2021/08/27 10:20:12;;;;;;;8.40;5.50;;;;;;;23.04;44.61;96768.59;116210;1183;59518;-72
2021/08/27 10:22:41;;;;;;;7.70;4.90;;;;;;;22.81;44.87;96767.59;116253;1179;71160;-74
2021/08/27 10:25:12;;;;;;;7.80;4.50;;;;;;;22.53;45.33;96763.38;116205;1184;68157;-71
2021/08/27 10:27:47;;;;;;;7.80;4.60;;;;;;;22.63;45.46;96761.52;116238;1183;68530;-72
2021/08/27 10:30:16;;;;;;;6.20;3.70;;;;;;;22.79;46.35;96754.55;116214;1182;59530;-71
2021/08/27 10:32:46;;;;;;;12.90;4.30;;;;;;;22.98;45.45;96758.48;116237;1179;59538;-70
2021/08/27 10:35:24;;;;;;;8.00;3.80;;;;;;;23.25;45.14;96757.50;116233;1185;70748;-72
2021/08/27 10:37:54;;;;;;;8.00;4.90;;;;;;;23.34;44.93;96760.45;116231;1179;68975;-72
2021/08/27 10:40:23;;;;;;;9.10;4.10;;;;;;;23.26;44.94;96761.06;116208;1179;68779;-71
2021/08/27 10:43:02;;;;;;;5.50;4.00;;;;;;;23.29;45.39;96757.06;116196;1179;59550;-72
2021/08/27 10:45:40;;;;;;;6.10;4.00;;;;;;;23.32;45.68;96756.98;116225;1179;59552;-72
2021/08/27 10:48:18;;;;;;;7.50;3.80;;;;;;;23.40;44.99;96758.48;116214;1179;70430;-72
2021/08/27 10:50:50;;;;;;;7.10;4.00;;;;;;;23.49;44.98;96752.86;116229;1179;69222;-71
2021/08/27 10:53:36;;;;;;;8.40;4.40;;;;;;;23.43;44.87;96755.54;116207;1183;69246;-71
2021/08/27 10:56:40;;;;;;;17.20;4.20;;;;;;;23.33;44.83;96751.29;116140;1185;59546;-74
2021/08/27 10:59:12;;;;;;;8.80;4.20;;;;;;;23.24;44.77;96745.96;116170;1182;59510;-72
2021/08/27 11:01:43;;;;;;;10.30;4.20;;;;;;;22.92;44.75;96745.34;116230;1184;70367;-70
2021/08/27 11:04:19;;;;;;;6.00;3.80;;;;;;;22.54;46.45;96756.39;116168;1179;68665;-71
2021/08/27 11:06:56;;;;;;;7.80;4.30;;;;;;;22.19;47.08;96766.92;116196;1184;68424;-72
2021/08/27 11:09:30;;;;;;;7.10;4.20;;;;;;;21.98;46.64;96771.91;116142;1182;59556;-71
2021/08/27 11:12:19;;;;;;;10.40;4.90;;;;;;;21.78;48.65;96782.16;116102;1182;59531;-70
2021/08/27 11:14:55;;;;;;;7.30;4.80;;;;;;;21.58;51.63;96784.40;116181;1184;71430;-70
2021/08/27 11:17:24;;;;;;;10.80;5.60;;;;;;;21.32;53.46;96786.58;116258;1178;67504;-70
2021/08/27 11:19:56;;;;;;;9.40;5.80;;;;;;;21.02;54.21;96788.86;116233;1179;69250;-70
2021/08/27 11:22:30;;;;;;;11.00;5.90;;;;;;;20.80;54.26;96791.67;116242;1185;59620;-73
2021/08/27 11:25:11;;;;;;;13.30;9.60;;;;;;;20.65;55.02;96792.05;115997;1184;59488;-71
2021/08/27 11:28:07;;;;;;;11.70;7.30;;;;;;;20.48;56.66;96792.23;116086;1185;70661;-70
2021/08/27 11:31:06;;;;;;;16.20;8.20;;;;;;;20.27;57.75;96797.30;116077;1182;68461;-70
2021/08/27 11:33:47;;;;;;;13.60;7.60;;;;;;;20.11;58.22;96792.08;116041;1183;69051;-71
2021/08/27 11:36:18;;;;;;;12.10;8.10;;;;;;;19.92;58.99;96795.55;116163;1185;59541;-71
2021/08/27 11:38:52;;;;;;;12.20;7.00;;;;;;;19.75;60.34;96793.44;116179;1184;59582;-72
2021/08/27 11:41:23;;;;;;;14.30;6.60;;;;;;;19.58;60.51;96795.35;116077;1181;70621;-70
2021/08/27 11:44:07;;;;;;;11.20;6.40;;;;;;;19.43;61.87;96800.48;116158;1179;69167;-73
2021/08/27 11:46:37;;;;;;;9.30;5.80;;;;;;;19.20;62.77;96804.20;116111;1185;69075;-75